createdAt,value
2023-11-17T00:02:33.396Z,99856.81
2023-11-17T00:05:22.637Z,99859.06
2023-11-17T00:08:12.008Z,99855.88
2023-11-17T00:10:59.935Z,99854.50
2023-11-17T00:13:48.099Z,99856.56
2023-11-17T00:16:36.196Z,99870.94
2023-11-17T00:19:24.244Z,99860.00
2023-11-17T00:22:12.131Z,99863.81
2023-11-17T00:25:01.782Z,99856.31
2023-11-17T00:27:49.912Z,99856.09
2023-11-17T00:30:37.969Z,99860.84
2023-11-17T00:33:26.059Z,99848.63
2023-11-17T00:36:16.561Z,99840.66
2023-11-17T00:39:10.266Z,99844.91
2023-11-17T00:42:00.008Z,99851.16
2023-11-17T00:44:48.370Z,99843.44
2023-11-17T00:47:36.348Z,99840.50
2023-11-17T00:50:24.719Z,99836.38
2023-11-17T00:53:14.143Z,99828.59
2023-11-17T00:56:02.733Z,99818.81
2023-11-17T00:58:51.932Z,99810.03
2023-11-17T01:01:42.210Z,99788.69
2023-11-17T01:04:30.239Z,99766.88
2023-11-17T01:07:19.369Z,99783.53
2023-11-17T01:10:08.761Z,99782.06
2023-11-17T01:12:56.742Z,99765.44
2023-11-17T01:15:46.740Z,99762.16
2023-11-17T01:18:34.523Z,99752.38
2023-11-17T01:21:23.108Z,99773.50
2023-11-17T01:24:11.220Z,99770.31
2023-11-17T01:26:58.942Z,99762.41
2023-11-17T01:29:46.815Z,99765.84
2023-11-17T01:32:36.038Z,99750.41
2023-11-17T01:35:24.293Z,99754.75
2023-11-17T01:38:13.020Z,99756.56
2023-11-17T01:41:01.004Z,99751.84
2023-11-17T01:43:50.001Z,99744.69
2023-11-17T01:46:38.228Z,99736.78
2023-11-17T01:49:28.296Z,99721.66
2023-11-17T01:52:16.125Z,99720.84
2023-11-17T01:55:07.131Z,99726.03
2023-11-17T01:57:55.687Z,99718.88
2023-11-17T02:00:43.838Z,99719.97
2023-11-17T02:03:32.306Z,99715.78
2023-11-17T02:06:34.809Z,99718.91
2023-11-17T02:09:36.009Z,99705.22
2023-11-17T02:12:36.973Z,99689.53
2023-11-17T02:15:28.629Z,99722.31
2023-11-17T02:18:17.489Z,99701.78
2023-11-17T02:21:08.169Z,99692.81
2023-11-17T02:24:00.796Z,99693.97
2023-11-17T02:26:55.691Z,99692.03
2023-11-17T02:29:46.083Z,99682.22
2023-11-17T02:32:39.817Z,99690.50
2023-11-17T02:35:31.334Z,99682.03
2023-11-17T02:38:19.134Z,99682.56
2023-11-17T02:41:10.233Z,99670.47
2023-11-17T02:43:59.599Z,99689.38
2023-11-17T02:46:59.941Z,99693.31
2023-11-17T02:49:54.291Z,99667.22
2023-11-17T02:52:50.039Z,99674.28
2023-11-17T02:55:39.356Z,99662.75
2023-11-17T02:58:28.636Z,99651.53
2023-11-17T03:01:20.136Z,99686.88
2023-11-17T03:04:15.218Z,99673.72
2023-11-17T03:07:04.041Z,99655.53
2023-11-17T03:09:54.011Z,99643.66
2023-11-17T03:12:42.081Z,99630.47
2023-11-17T03:15:30.595Z,99613.09
2023-11-17T03:18:18.515Z,99623.97
2023-11-17T03:21:10.349Z,99605.81
2023-11-17T03:23:59.875Z,99540.94
2023-11-17T03:26:48.092Z,99611.00
2023-11-17T03:29:36.417Z,99608.69
2023-11-17T03:32:24.604Z,99605.91
2023-11-17T03:35:12.575Z,99604.44
2023-11-17T03:38:01.916Z,99596.53
2023-11-17T03:40:49.820Z,99592.03
2023-11-17T03:43:39.058Z,99590.44
2023-11-17T03:46:26.962Z,99592.88
2023-11-17T03:49:15.660Z,99580.16
2023-11-17T03:52:05.794Z,99590.19
2023-11-17T03:54:57.580Z,99567.72
2023-11-17T03:57:47.256Z,99578.69
2023-11-17T04:00:35.421Z,99567.88
2023-11-17T04:03:24.064Z,99557.25
2023-11-17T04:06:12.207Z,99550.53
2023-11-17T04:09:00.154Z,99525.28
2023-11-17T04:11:49.979Z,99543.53
2023-11-17T04:14:39.696Z,99537.38
2023-11-17T04:17:28.013Z,99535.19
2023-11-17T04:20:18.817Z,99516.19
2023-11-17T04:23:06.718Z,99511.56
2023-11-17T04:25:54.659Z,99509.47
2023-11-17T04:28:45.305Z,99518.66
2023-11-17T04:31:33.512Z,99515.66
2023-11-17T04:34:22.842Z,99511.78
2023-11-17T04:37:10.867Z,99496.88
2023-11-17T04:39:58.853Z,99515.13
2023-11-17T04:42:46.648Z,99502.66
2023-11-17T04:45:37.557Z,99510.13
2023-11-17T04:48:25.413Z,99484.41
2023-11-17T04:51:15.100Z,99477.31
2023-11-17T04:54:03.104Z,99485.16
2023-11-17T04:56:51.021Z,99488.16
2023-11-17T04:59:38.917Z,99464.84
2023-11-17T05:02:28.415Z,99498.56
2023-11-17T05:05:16.742Z,99486.84
2023-11-17T05:08:04.617Z,99485.88
2023-11-17T05:10:52.843Z,99483.09
2023-11-17T05:13:40.707Z,99492.03
2023-11-17T05:16:30.333Z,99504.59
2023-11-17T05:19:20.719Z,99495.53
2023-11-17T05:22:08.726Z,99509.91
2023-11-17T05:24:57.030Z,99511.59
2023-11-17T05:27:47.401Z,99495.66
2023-11-17T05:30:35.539Z,99500.94
2023-11-17T05:33:23.835Z,99494.28
2023-11-17T05:36:14.347Z,99496.72
2023-11-17T05:39:02.396Z,99496.88
2023-11-17T05:41:50.246Z,99484.28
2023-11-17T05:44:38.212Z,99493.97
2023-11-17T05:47:26.001Z,99499.41
2023-11-17T05:50:14.349Z,99495.41
2023-11-17T05:53:03.846Z,99487.06
2023-11-17T05:55:52.161Z,99469.09
2023-11-17T05:58:40.218Z,99484.78
2023-11-17T06:01:28.099Z,99479.00
2023-11-17T06:04:16.330Z,99487.94
2023-11-17T06:07:05.999Z,99482.84
2023-11-17T06:09:55.558Z,99487.56
2023-11-17T06:12:45.077Z,99494.69
2023-11-17T06:15:33.154Z,99503.09
2023-11-17T06:18:22.102Z,99489.31
2023-11-17T06:21:11.313Z,99478.44
2023-11-17T06:23:59.569Z,99493.84
2023-11-17T06:26:49.028Z,99468.72
2023-11-17T06:29:36.923Z,99463.41
2023-11-17T06:32:24.932Z,99487.81
2023-11-17T06:35:15.435Z,99486.66
2023-11-17T06:38:05.379Z,99476.34
2023-11-17T06:40:53.502Z,99481.91
2023-11-17T06:43:43.023Z,99484.66
2023-11-17T06:46:32.326Z,99467.69
2023-11-17T06:49:21.903Z,99409.06
2023-11-17T06:52:11.309Z,99468.13
2023-11-17T06:55:00.397Z,99464.88
2023-11-17T06:57:48.310Z,99456.81
2023-11-17T07:00:37.613Z,99453.31
2023-11-17T07:03:25.818Z,99469.03
2023-11-17T07:06:13.876Z,99456.84
2023-11-17T07:09:02.624Z,99460.84
2023-11-17T07:11:53.219Z,99467.13
2023-11-17T07:14:41.251Z,99461.34
2023-11-17T07:17:30.663Z,99465.47
2023-11-17T07:20:22.157Z,99442.75
2023-11-17T07:23:10.649Z,99440.31
2023-11-17T07:25:58.655Z,99427.53
2023-11-17T07:28:48.056Z,99419.72
2023-11-17T07:31:39.887Z,99405.75
2023-11-17T07:34:29.499Z,99399.84
2023-11-17T07:37:17.442Z,99392.75
2023-11-17T07:40:07.055Z,99388.50
2023-11-17T07:42:54.982Z,99356.06
2023-11-17T07:45:44.136Z,99401.38
2023-11-17T07:48:39.125Z,99362.13
2023-11-17T07:51:35.717Z,99389.81
2023-11-17T07:54:26.278Z,99432.41
2023-11-17T07:57:14.648Z,99435.06
2023-11-17T08:00:02.537Z,99427.81
2023-11-17T08:02:51.795Z,99433.25
2023-11-17T08:05:40.298Z,99407.28
2023-11-17T08:08:30.733Z,99409.28
2023-11-17T08:11:18.874Z,99400.28
2023-11-17T08:14:06.944Z,99412.53
2023-11-17T08:16:55.259Z,99398.63
2023-11-17T08:19:43.286Z,99365.91
2023-11-17T08:22:31.724Z,99366.97
2023-11-17T08:25:22.075Z,99374.78
2023-11-17T08:28:10.072Z,99376.94
2023-11-17T08:30:59.019Z,99386.13
2023-11-17T08:33:47.014Z,99381.25
2023-11-17T08:36:34.963Z,99367.66
2023-11-17T08:39:29.480Z,99374.13
2023-11-17T08:42:19.700Z,99357.03
2023-11-17T08:45:10.204Z,99358.47
2023-11-17T08:48:02.439Z,99315.66
2023-11-17T08:50:51.760Z,99318.72
2023-11-17T08:53:40.065Z,99321.38
2023-11-17T08:56:27.877Z,99333.75
2023-11-17T08:59:19.030Z,99330.66
2023-11-17T09:02:08.457Z,99328.97
2023-11-17T09:04:56.302Z,99326.59
2023-11-17T09:07:46.231Z,99264.81
2023-11-17T09:10:34.282Z,99293.16
2023-11-17T09:13:22.614Z,99314.63
2023-11-17T09:16:12.153Z,99314.63
2023-11-17T09:19:00.540Z,99314.06
2023-11-17T09:21:48.820Z,99308.13
2023-11-17T09:24:36.787Z,99328.97
2023-11-17T09:27:24.784Z,99326.69
2023-11-17T09:30:15.942Z,99322.78
2023-11-17T09:33:05.787Z,99316.88
2023-11-17T09:35:56.020Z,99304.22
2023-11-17T09:38:43.841Z,99262.28
2023-11-17T09:41:32.121Z,99255.53
2023-11-17T09:44:20.313Z,99245.84
2023-11-17T09:47:19.929Z,99260.75
2023-11-17T09:50:11.722Z,99261.13
2023-11-17T09:53:01.685Z,99252.28
2023-11-17T09:55:51.849Z,99239.94
2023-11-17T09:58:41.183Z,99222.38
2023-11-17T10:01:31.344Z,99221.13
2023-11-17T10:04:21.631Z,99207.09
2023-11-17T10:07:11.819Z,99176.50
2023-11-17T10:10:02.826Z,99178.34
2023-11-17T10:12:55.403Z,99210.59
2023-11-17T10:15:45.915Z,99205.81
2023-11-17T10:18:35.113Z,99174.50
2023-11-17T10:21:25.221Z,99169.44
2023-11-17T10:24:14.543Z,99180.59
2023-11-17T10:27:03.299Z,99169.66
2023-11-17T10:29:51.738Z,99163.34
2023-11-17T10:32:59.272Z,99185.41
2023-11-17T10:36:03.036Z,99187.66
2023-11-17T10:39:08.250Z,99174.59
2023-11-17T10:41:57.882Z,99175.84
2023-11-17T10:44:45.870Z,99171.94
2023-11-17T10:47:34.287Z,99152.00
2023-11-17T10:50:23.689Z,99154.50
2023-11-17T10:53:20.913Z,99138.84
2023-11-17T10:56:25.662Z,99141.53
2023-11-17T10:59:17.653Z,99149.38
2023-11-17T11:02:06.274Z,99145.41
2023-11-17T11:05:04.002Z,99146.19
2023-11-17T11:07:53.476Z,99129.03
2023-11-17T11:10:50.005Z,99129.84
2023-11-17T11:13:40.281Z,99113.44
2023-11-17T11:16:34.135Z,99106.94
2023-11-17T11:19:25.280Z,99105.00
2023-11-17T11:22:16.087Z,99118.88
2023-11-17T11:25:06.965Z,99096.06
2023-11-17T11:27:57.298Z,99111.31
2023-11-17T11:30:46.414Z,99099.72
2023-11-17T11:33:36.842Z,99102.25
2023-11-17T11:36:25.093Z,99095.91
2023-11-17T11:39:14.295Z,99086.66
2023-11-17T11:42:04.549Z,99078.66
2023-11-17T11:44:53.031Z,99090.72
2023-11-17T11:47:41.962Z,99086.75
2023-11-17T11:50:39.406Z,98991.47
2023-11-17T11:53:39.882Z,99071.72
2023-11-17T11:56:31.049Z,99067.06
2023-11-17T11:59:19.095Z,99054.56
2023-11-17T12:02:07.956Z,99044.84
2023-11-17T12:04:56.044Z,99024.88
2023-11-17T12:07:46.756Z,99026.72
2023-11-17T12:10:37.346Z,99011.75
2023-11-17T12:13:38.451Z,99005.53
2023-11-17T12:16:42.223Z,99011.28
2023-11-17T12:19:32.912Z,98997.69
2023-11-17T12:22:22.892Z,99025.75
2023-11-17T12:25:14.605Z,99032.94
2023-11-17T12:28:02.813Z,99027.75
2023-11-17T12:30:51.316Z,99026.13
2023-11-17T12:33:40.570Z,99032.16
2023-11-17T12:36:28.643Z,99022.81
2023-11-17T12:39:21.462Z,99028.16
2023-11-17T12:42:18.216Z,99015.59
2023-11-17T12:45:08.363Z,98990.66
2023-11-17T12:48:01.067Z,99024.34
2023-11-17T12:50:49.069Z,99012.13
2023-11-17T12:53:50.952Z,98999.75
2023-11-17T12:56:40.826Z,98995.28
2023-11-17T12:59:30.447Z,98987.72
2023-11-17T13:02:18.921Z,98980.69
2023-11-17T13:05:08.384Z,98971.69
2023-11-17T13:07:56.309Z,98950.97
2023-11-17T13:10:47.524Z,98938.88
2023-11-17T13:13:38.234Z,98965.66
2023-11-17T13:16:30.490Z,98963.28
2023-11-17T13:19:21.262Z,98974.06
2023-11-17T13:22:10.477Z,98971.69
2023-11-17T13:25:08.994Z,98980.06
2023-11-17T13:27:57.703Z,98969.34
2023-11-17T13:30:45.450Z,98956.66
2023-11-17T13:33:42.632Z,98954.59
2023-11-17T13:36:35.389Z,98951.53
2023-11-17T13:39:23.653Z,98940.78
2023-11-17T13:42:14.544Z,98941.28
2023-11-17T13:45:02.913Z,98933.41
2023-11-17T13:48:01.589Z,98931.91
2023-11-17T13:50:58.423Z,98916.66
2023-11-17T13:53:46.583Z,98909.78
2023-11-17T13:56:34.714Z,98913.50
2023-11-17T13:59:24.849Z,98925.06
2023-11-17T14:02:12.730Z,98921.34
2023-11-17T14:05:01.918Z,98897.22
2023-11-17T14:07:51.176Z,98910.16
2023-11-17T14:10:39.500Z,98909.03
2023-11-17T14:13:28.459Z,98903.69
2023-11-17T14:16:16.590Z,98902.53
2023-11-17T14:19:04.621Z,98886.28
2023-11-17T14:21:52.624Z,98893.16
2023-11-17T14:24:42.818Z,98900.53
2023-11-17T14:27:31.403Z,98889.63
2023-11-17T14:30:20.877Z,98896.31
2023-11-17T14:33:08.793Z,98883.81
2023-11-17T14:35:57.081Z,98876.94
2023-11-17T14:38:45.794Z,98875.94
2023-11-17T14:41:35.330Z,98879.09
2023-11-17T14:44:23.919Z,98881.72
2023-11-17T14:47:11.977Z,98877.06
2023-11-17T14:50:00.894Z,98873.88
2023-11-17T14:52:48.880Z,98872.53
2023-11-17T14:55:37.790Z,98893.91
2023-11-17T14:58:27.353Z,98884.03
2023-11-17T15:01:16.410Z,98885.31
2023-11-17T15:04:04.958Z,98872.81
2023-11-17T15:06:55.207Z,98870.50
2023-11-17T15:09:43.534Z,98872.81
2023-11-17T15:12:31.615Z,98872.59
2023-11-17T15:15:29.439Z,98850.44
2023-11-17T15:18:20.819Z,98851.19
2023-11-17T15:21:09.570Z,98866.72
2023-11-17T15:23:57.666Z,98869.09
2023-11-17T15:26:45.679Z,98849.53
2023-11-17T15:29:35.227Z,98866.53
2023-11-17T15:32:26.136Z,98855.31
2023-11-17T15:35:14.828Z,98858.19
2023-11-17T15:38:07.965Z,98862.03
2023-11-17T15:40:59.408Z,98861.50
2023-11-17T15:43:48.639Z,98842.97
2023-11-17T15:46:39.785Z,98837.09
2023-11-17T15:49:30.524Z,98829.41
2023-11-17T15:52:18.497Z,98841.44
2023-11-17T15:55:08.470Z,98829.66
2023-11-17T15:57:56.601Z,98842.06
2023-11-17T16:00:47.063Z,98824.16
2023-11-17T16:03:36.077Z,98831.19
2023-11-17T16:06:26.857Z,98839.41
2023-11-17T16:09:16.736Z,98829.28
2023-11-17T16:12:06.223Z,98851.06
2023-11-17T16:14:54.605Z,98846.28
2023-11-17T16:17:43.051Z,98850.84
2023-11-17T16:20:32.913Z,98837.66
2023-11-17T16:23:25.074Z,98814.41
2023-11-17T16:26:13.471Z,98831.66
2023-11-17T16:29:01.585Z,98820.91
2023-11-17T16:31:50.700Z,98807.19
2023-11-17T16:34:40.154Z,98830.22
2023-11-17T16:37:30.751Z,98851.25
2023-11-17T16:40:23.573Z,98864.97
2023-11-17T16:43:11.996Z,98855.16
2023-11-17T16:46:01.087Z,98857.53
2023-11-17T16:48:51.548Z,98850.22
2023-11-17T16:51:46.324Z,98799.53
2023-11-17T16:54:34.515Z,98827.22
2023-11-17T16:57:24.969Z,98806.34
2023-11-17T17:00:16.029Z,98797.81
2023-11-17T17:03:04.251Z,98826.19
2023-11-17T17:05:52.498Z,98785.97
2023-11-17T17:08:40.663Z,98784.94
2023-11-17T17:11:28.707Z,98794.28
2023-11-17T17:14:20.921Z,98778.28
2023-11-17T17:17:10.569Z,98786.59
2023-11-17T17:19:58.518Z,98777.69
2023-11-17T17:22:47.895Z,98762.19
2023-11-17T17:25:38.471Z,98771.16
2023-11-17T17:28:28.170Z,98782.78
2023-11-17T17:31:18.837Z,98762.16
2023-11-17T17:34:09.278Z,98772.06
2023-11-17T17:36:57.207Z,98763.38
2023-11-17T17:39:45.521Z,98788.13
2023-11-17T17:42:33.582Z,98773.06
2023-11-17T17:45:22.860Z,98761.53
2023-11-17T17:48:13.567Z,98768.09
2023-11-17T17:51:01.723Z,98769.44
2023-11-17T17:53:49.550Z,98767.72
2023-11-17T17:56:37.528Z,98771.53
2023-11-17T17:59:26.540Z,98754.16
2023-11-17T18:02:14.855Z,98745.66
2023-11-17T18:05:07.392Z,98742.75
2023-11-17T18:07:56.435Z,98734.81
2023-11-17T18:10:45.487Z,98737.19
2023-11-17T18:13:33.748Z,98736.19
2023-11-17T18:16:23.060Z,98726.91
2023-11-17T18:19:13.707Z,98724.38
2023-11-17T18:22:03.333Z,98722.88
2023-11-17T18:24:51.357Z,98708.84
2023-11-17T18:27:41.064Z,98712.81
2023-11-17T18:30:29.606Z,98697.50
2023-11-17T18:33:20.822Z,98699.91
2023-11-17T18:36:12.022Z,98703.03
2023-11-17T18:39:01.371Z,98703.34
2023-11-17T18:41:52.524Z,98676.09
2023-11-17T18:44:44.160Z,98684.09
2023-11-17T18:47:34.223Z,98690.94
2023-11-17T18:50:23.189Z,98681.31
2023-11-17T18:53:11.450Z,98673.28
2023-11-17T18:56:01.783Z,98683.97
2023-11-17T18:58:50.946Z,98672.03
2023-11-17T19:01:39.507Z,98670.47
2023-11-17T19:04:28.583Z,98674.00
2023-11-17T19:07:18.388Z,98679.88
2023-11-17T19:10:09.986Z,98666.41
2023-11-17T19:12:59.925Z,98651.78
2023-11-17T19:15:48.189Z,98639.56
2023-11-17T19:18:38.672Z,98675.53
2023-11-17T19:21:26.961Z,98701.63
2023-11-17T19:24:23.185Z,98768.56
2023-11-17T19:27:16.020Z,98829.22
2023-11-17T19:30:16.074Z,98820.66
2023-11-17T19:33:07.342Z,98833.56
2023-11-17T19:36:04.341Z,98836.25
2023-11-17T19:38:57.601Z,98825.03
2023-11-17T19:41:45.711Z,98822.44
2023-11-17T19:44:43.729Z,98819.50
2023-11-17T19:47:40.823Z,98830.56
2023-11-17T19:50:29.336Z,98831.19
2023-11-17T19:53:17.750Z,98829.81
2023-11-17T19:56:07.100Z,98834.31
2023-11-17T19:59:00.298Z,98808.00
2023-11-17T20:01:50.358Z,98828.31
2023-11-17T20:04:42.641Z,98814.06
2023-11-17T20:07:31.490Z,98819.91
2023-11-17T20:10:20.346Z,98825.66
2023-11-17T20:13:08.591Z,98837.31
2023-11-17T20:15:58.017Z,98807.91
2023-11-17T20:18:46.611Z,98829.31
2023-11-17T20:21:36.404Z,98824.28
2023-11-17T20:24:27.231Z,98809.59
2023-11-17T20:27:16.504Z,98820.34
2023-11-17T20:30:05.419Z,98816.28
2023-11-17T20:32:56.034Z,98793.44
2023-11-17T20:35:45.865Z,98762.69
2023-11-17T20:38:38.094Z,98764.19
2023-11-17T20:41:27.447Z,98791.22
2023-11-17T20:44:15.688Z,98792.34
2023-11-17T20:47:04.018Z,98793.88
2023-11-17T20:49:52.104Z,98782.13
2023-11-17T20:52:41.741Z,98774.44
2023-11-17T20:55:31.219Z,98761.28
2023-11-17T20:58:20.083Z,98767.28
2023-11-17T21:01:09.816Z,98755.91
2023-11-17T21:03:58.896Z,98727.06
2023-11-17T21:06:47.054Z,98737.84
2023-11-17T21:09:36.619Z,98713.31
2023-11-17T21:12:26.501Z,98701.84
2023-11-17T21:15:15.381Z,98692.81
2023-11-17T21:18:03.305Z,98697.06
2023-11-17T21:20:51.595Z,98663.69
2023-11-17T21:23:40.513Z,98642.41
2023-11-17T21:26:28.852Z,98580.75
2023-11-17T21:29:18.639Z,98589.63
2023-11-17T21:32:08.671Z,98587.88
2023-11-17T21:34:59.045Z,98604.97
2023-11-17T21:37:47.699Z,98633.59
2023-11-17T21:40:37.499Z,98642.69
2023-11-17T21:43:26.373Z,98645.31
2023-11-17T21:46:19.135Z,98659.78
2023-11-17T21:49:08.158Z,98633.66
2023-11-17T21:51:55.897Z,98622.22
2023-11-17T21:54:43.953Z,98656.44
2023-11-17T21:57:32.042Z,98617.38
2023-11-17T22:00:21.049Z,98658.97
2023-11-17T22:03:13.312Z,98676.34
2023-11-17T22:06:01.406Z,98683.34
2023-11-17T22:08:49.827Z,98662.34
2023-11-17T22:11:37.660Z,98610.00
2023-11-17T22:14:25.572Z,98670.53
2023-11-17T22:17:13.757Z,98645.06
2023-11-17T22:20:03.268Z,98657.38
2023-11-17T22:22:53.424Z,98651.41
2023-11-17T22:25:41.734Z,98663.09
2023-11-17T22:28:30.073Z,98664.78
2023-11-17T22:31:19.886Z,98664.91
2023-11-17T22:34:08.204Z,98642.25
2023-11-17T22:36:58.266Z,98661.66
2023-11-17T22:39:47.182Z,98686.22
2023-11-17T22:42:35.590Z,98696.19
2023-11-17T22:45:24.295Z,98688.84
2023-11-17T22:48:12.245Z,98686.59
2023-11-17T22:51:00.291Z,98678.88
2023-11-17T22:53:49.635Z,98663.00
2023-11-17T22:56:37.783Z,98671.59
2023-11-17T22:59:25.603Z,98666.47
2023-11-17T23:02:16.947Z,98643.94
2023-11-17T23:05:06.490Z,98662.84
2023-11-17T23:07:54.410Z,98670.72
2023-11-17T23:10:43.821Z,98668.09
2023-11-17T23:13:31.876Z,98658.41
2023-11-17T23:16:20.581Z,98671.63
2023-11-17T23:19:17.790Z,98669.50
2023-11-17T23:22:08.768Z,98679.00
2023-11-17T23:24:57.828Z,98678.53
2023-11-17T23:27:47.538Z,98638.91
2023-11-17T23:30:37.107Z,98623.00
2023-11-17T23:33:25.248Z,98676.09
2023-11-17T23:36:13.198Z,98664.06
2023-11-17T23:39:01.246Z,98665.22
2023-11-17T23:41:50.301Z,98669.94
2023-11-17T23:44:39.632Z,98669.03
2023-11-17T23:47:27.546Z,98658.84
2023-11-17T23:50:16.172Z,98661.28
2023-11-17T23:53:07.239Z,98643.38
2023-11-17T23:55:56.148Z,98659.03
2023-11-17T23:58:44.538Z,98668.28
